Time;durP1;ratioP1;P1;durP2;ratioP2;P2;SDS_P1;SDS_P2;PMS_P1;PMS_P2;Temp;Humidity;BMP_temperature;BMP_pressure;BME280_temperature;BME280_humidity;BME280_pressure;Samples;Min_cycle;Max_cycle;Signal;HPM_P1;HPM_P2
2022/05/20 00:00:33;;;;;;;4.10;2.28;;;17.30;67.50;;;;;;5033609;28;20206;-88
2022/05/20 00:03:04;;;;;;;2.83;2.22;;;17.40;68.10;;;;;;5033476;28;20234;-88
2022/05/20 00:05:36;;;;;;;3.08;2.33;;;17.30;67.50;;;;;;5033744;28;20230;-88
2022/05/20 00:08:06;;;;;;;2.15;2.03;;;17.30;67.70;;;;;;5033153;28;20222;-87
2022/05/20 00:10:35;;;;;;;2.40;2.17;;;17.20;67.70;;;;;;5032872;28;20230;-87
2022/05/20 00:13:05;;;;;;;8.27;1.95;;;17.10;67.80;;;;;;5033723;28;20232;-88
2022/05/20 00:15:37;;;;;;;3.50;2.15;;;17.10;68.40;;;;;;5033167;28;20206;-87
2022/05/20 00:18:08;;;;;;;2.42;2.22;;;17.10;68.70;;;;;;5033294;28;20199;-87
2022/05/20 00:20:36;;;;;;;1.88;1.60;;;17.00;69.00;;;;;;5032847;28;20274;-87
2022/05/20 00:23:05;;;;;;;2.47;2.28;;;17.00;69.70;;;;;;5033155;28;20226;-88
2022/05/20 00:25:47;;;;;;;2.97;2.15;;;16.90;69.90;;;;;;5033113;28;20221;-87
2022/05/20 00:28:19;;;;;;;1.73;1.63;;;16.90;69.80;;;;;;5032519;28;20254;-87
2022/05/20 00:30:51;;;;;;;3.17;1.95;;;16.80;70.30;;;;;;5032868;28;20202;-87
2022/05/20 00:33:21;;;;;;;2.97;2.35;;;16.70;70.80;;;;;;5033389;28;20233;-87
2022/05/20 00:35:52;;;;;;;1.73;1.50;;;16.70;72.20;;;;;;5033118;28;20203;-87
2022/05/20 00:38:21;;;;;;;3.00;2.70;;;16.70;71.50;;;;;;5032944;28;20294;-88
2022/05/20 00:40:52;;;;;;;1.88;1.77;;;16.70;71.60;;;;;;5032736;28;20202;-88
2022/05/20 00:43:34;;;;;;;2.13;1.92;;;16.70;71.20;;;;;;5032970;28;20659;-87
2022/05/20 00:46:05;;;;;;;1.52;1.42;;;16.60;71.30;;;;;;5032805;28;20207;-88
2022/05/20 00:48:36;;;;;;;2.15;1.95;;;16.60;71.30;;;;;;5032527;28;20222;-88
2022/05/20 00:51:09;;;;;;;1.77;1.50;;;16.50;71.80;;;;;;5032696;28;20233;-87
2022/05/20 00:53:42;;;;;;;2.67;1.75;;;16.50;71.40;;;;;;5033063;28;20233;-88
2022/05/20 00:56:18;;;;;;;1.92;1.83;;;16.50;72.10;;;;;;5032505;28;20217;-88
2022/05/20 00:58:47;;;;;;;2.58;1.63;;;16.40;72.20;;;;;;5032781;28;20206;-88
2022/05/20 01:01:15;;;;;;;2.10;1.75;;;16.40;72.40;;;;;;5032179;28;20218;-87
2022/05/20 01:03:47;;;;;;;3.55;1.90;;;16.40;72.60;;;;;;5032231;28;20241;-87
2022/05/20 01:06:19;;;;;;;1.60;1.50;;;16.40;73.20;;;;;;5032658;28;20257;-87
2022/05/20 01:08:47;;;;;;;1.70;1.60;;;16.40;73.90;;;;;;5033366;28;20218;-87
2022/05/20 01:11:18;;;;;;;2.10;2.00;;;16.40;73.40;;;;;;5036351;28;20233;-87
2022/05/20 01:13:49;;;;;;;2.20;1.65;;;16.30;73.80;;;;;;5036257;28;20276;-87
2022/05/20 01:16:17;;;;;;;5.50;1.45;;;16.30;74.50;;;;;;5036688;28;20213;-88
2022/05/20 01:18:53;;;;;;;2.08;1.95;;;16.30;75.10;;;;;;5036775;28;20253;-88
2022/05/20 01:21:22;;;;;;;2.20;2.00;;;16.40;76.00;;;;;;5036593;28;20212;-88
2022/05/20 01:23:52;;;;;;;3.13;1.90;;;16.40;76.10;;;;;;5036658;28;20222;-88
2022/05/20 01:26:22;;;;;;;2.75;1.67;;;16.30;76.80;;;;;;5036247;28;20210;-87
2022/05/20 01:28:50;;;;;;;2.25;1.92;;;16.30;76.90;;;;;;5036512;28;20222;-87
2022/05/20 01:31:19;;;;;;;1.58;1.48;;;16.30;75.80;;;;;;5036148;28;20268;-88
2022/05/20 01:33:51;;;;;;;1.73;1.52;;;16.30;76.80;;;;;;5036081;28;20223;-87
2022/05/20 01:36:24;;;;;;;1.58;1.48;;;16.30;76.90;;;;;;5036504;28;20237;-88
2022/05/20 01:38:55;;;;;;;1.80;1.70;;;16.30;77.60;;;;;;5036186;28;20260;-87
2022/05/20 01:41:31;;;;;;;1.80;1.70;;;16.30;76.70;;;;;;5035889;28;20222;-87
2022/05/20 01:44:08;;;;;;;2.20;1.73;;;16.30;76.20;;;;;;5036295;28;20256;-88
2022/05/20 01:46:40;;;;;;;3.13;1.80;;;16.40;76.70;;;;;;5036511;28;20241;-87
2022/05/20 01:49:40;;;;;;;3.75;2.03;;;16.40;76.00;;;;;;5035853;28;20248;-88
2022/05/20 01:52:16;;;;;;;2.10;1.85;;;16.50;76.90;;;;;;5020946;28;20198;-87
2022/05/20 01:54:56;;;;;;;2.30;1.80;;;16.50;77.90;;;;;;5035848;28;20299;-87
2022/05/20 01:57:30;;;;;;;1.60;1.50;;;16.60;79.50;;;;;;5035828;28;20213;-88
2022/05/20 02:00:07;;;;;;;13.77;1.88;;;16.60;79.80;;;;;;5035733;28;20200;-87
2022/05/20 02:02:42;;;;;;;1.92;1.73;;;16.80;79.90;;;;;;5035504;28;20214;-88
2022/05/20 02:05:17;;;;;;;1.60;1.50;;;16.80;79.30;;;;;;5035681;28;20210;-88
2022/05/20 02:07:50;;;;;;;2.95;1.67;;;16.80;78.80;;;;;;5035725;28;20206;-87
2022/05/20 02:10:25;;;;;;;3.40;2.05;;;16.90;78.60;;;;;;5035107;28;20250;-88
2022/05/20 02:12:58;;;;;;;1.60;1.50;;;16.90;78.40;;;;;;5035870;28;20283;-87
2022/05/20 02:15:31;;;;;;;1.52;1.42;;;16.80;78.40;;;;;;5035240;28;20230;-87
2022/05/20 02:18:04;;;;;;;2.40;1.63;;;16.80;78.20;;;;;;5035707;28;20257;-88
2022/05/20 02:20:37;;;;;;;1.48;1.38;;;16.90;78.10;;;;;;5035079;28;20198;-88
2022/05/20 02:23:09;;;;;;;3.10;1.50;;;16.90;77.70;;;;;;5035645;28;20226;-88
2022/05/20 02:25:44;;;;;;;1.60;1.50;;;16.90;77.20;;;;;;5035697;28;20237;-87
2022/05/20 02:28:16;;;;;;;2.33;1.40;;;17.00;77.10;;;;;;5034712;28;20248;-87
2022/05/20 02:30:45;;;;;;;2.15;1.60;;;17.10;77.10;;;;;;5034923;28;20256;-87
2022/05/20 02:33:17;;;;;;;2.83;1.50;;;17.10;77.40;;;;;;5035354;28;20297;-86
2022/05/20 02:35:45;;;;;;;1.40;1.40;;;17.20;77.80;;;;;;5035533;28;20210;-88
2022/05/20 02:38:20;;;;;;;2.03;1.85;;;17.20;77.80;;;;;;5035310;28;20222;-87
2022/05/20 02:40:53;;;;;;;1.75;1.63;;;17.30;78.10;;;;;;5034840;28;20221;-87
2022/05/20 02:43:22;;;;;;;1.77;1.67;;;17.30;78.40;;;;;;5035187;28;20280;-87
2022/05/20 02:45:52;;;;;;;8.98;1.70;;;17.40;78.70;;;;;;5035232;28;20314;-87
2022/05/20 02:48:22;;;;;;;2.50;1.80;;;17.40;78.60;;;;;;5035001;28;20260;-87
2022/05/20 02:50:51;;;;;;;3.05;2.00;;;17.50;80.20;;;;;;5034608;28;20250;-87
2022/05/20 02:53:20;;;;;;;1.75;1.65;;;17.50;80.20;;;;;;5034556;28;20305;-87
2022/05/20 02:55:50;;;;;;;4.50;2.08;;;17.50;80.30;;;;;;5034538;28;20276;-87
2022/05/20 03:04:12;;;;;;;1.50;1.45;;;17.60;82.80;;;;;;5034854;28;20264;-87
2022/05/20 03:06:42;;;;;;;2.13;1.92;;;17.60;82.70;;;;;;5034167;28;20206;-87
2022/05/20 03:09:13;;;;;;;2.00;1.80;;;17.60;83.60;;;;;;5034380;28;20222;-87
2022/05/20 03:11:43;;;;;;;2.30;2.10;;;17.70;88.80;;;;;;5033935;28;20292;-87
2022/05/20 03:14:14;;;;;;;2.58;2.10;;;17.80;89.80;;;;;;5034206;28;20230;-87
2022/05/20 03:16:43;;;;;;;2.28;2.08;;;17.90;90.30;;;;;;5034840;28;20210;-86
2022/05/20 03:19:12;;;;;;;2.40;2.03;;;18.00;90.40;;;;;;5034465;28;20202;-87
2022/05/20 03:21:42;;;;;;;2.05;1.85;;;18.10;90.90;;;;;;5033777;28;20252;-87
2022/05/20 03:24:11;;;;;;;3.05;2.03;;;18.10;91.10;;;;;;5033952;28;20253;-87
2022/05/20 03:26:40;;;;;;;2.05;1.90;;;18.20;91.80;;;;;;5033320;28;20202;-87
2022/05/20 03:29:10;;;;;;;6.70;2.40;;;18.20;92.30;;;;;;5033893;28;20276;-87
2022/05/20 03:31:39;;;;;;;2.30;2.08;;;18.20;92.60;;;;;;5033583;28;20211;-87
2022/05/20 03:34:09;;;;;;;6.72;2.15;;;18.20;92.30;;;;;;5034379;28;20239;-87
2022/05/20 03:36:38;;;;;;;2.08;1.80;;;18.20;92.00;;;;;;5034322;28;20198;-87
2022/05/20 03:39:08;;;;;;;2.17;1.98;;;18.20;92.10;;;;;;5033927;28;20298;-87
2022/05/20 03:41:38;;;;;;;2.13;1.92;;;18.20;91.60;;;;;;5033797;28;20276;-87
2022/05/20 03:44:08;;;;;;;3.20;2.20;;;18.10;91.20;;;;;;5034094;28;20256;-87
2022/05/20 03:46:42;;;;;;;2.20;2.05;;;18.10;91.70;;;;;;5033940;28;20215;-87
2022/05/20 03:49:12;;;;;;;2.35;2.15;;;18.10;90.70;;;;;;5033543;28;20206;-87
2022/05/20 03:51:40;;;;;;;2.20;2.08;;;18.10;90.30;;;;;;5033040;28;20251;-87
2022/05/20 03:54:09;;;;;;;1.63;1.52;;;18.10;90.30;;;;;;5033566;28;20242;-87
2022/05/20 03:56:38;;;;;;;2.30;2.10;;;18.00;89.50;;;;;;5033624;28;20251;-87
2022/05/20 03:59:08;;;;;;;2.63;1.88;;;18.00;89.00;;;;;;5033513;28;20267;-87
2022/05/20 04:04:26;;;;;;;1.75;1.65;;;18.00;87.80;;;;;;5033332;28;20238;-87
2022/05/20 04:06:54;;;;;;;2.35;2.15;;;18.00;88.00;;;;;;5033719;28;20230;-87
2022/05/20 04:09:23;;;;;;;2.00;1.83;;;18.10;87.80;;;;;;5033503;28;20210;-87
2022/05/20 04:11:58;;;;;;;2.30;2.00;;;18.10;87.50;;;;;;5032863;28;20218;-87
2022/05/20 04:14:42;;;;;;;1.70;1.60;;;18.00;86.60;;;;;;5033178;28;20234;-87
2022/05/20 04:17:10;;;;;;;4.60;2.15;;;18.10;86.50;;;;;;5033489;28;20206;-87
2022/05/20 04:19:40;;;;;;;1.55;1.45;;;18.10;86.60;;;;;;5033210;28;20210;-87
2022/05/20 04:22:10;;;;;;;2.45;2.03;;;18.10;86.60;;;;;;5032938;28;20284;-87
2022/05/20 04:24:38;;;;;;;1.67;1.58;;;18.10;86.60;;;;;;5032931;28;20222;-87
2022/05/20 04:27:07;;;;;;;2.47;1.77;;;18.10;87.60;;;;;;5032795;28;20217;-87
2022/05/20 04:29:35;;;;;;;2.42;2.00;;;18.20;86.70;;;;;;5032720;28;20206;-87
2022/05/20 04:32:05;;;;;;;2.28;1.98;;;18.20;88.50;;;;;;5032606;28;20230;-87
2022/05/20 04:34:33;;;;;;;2.67;2.17;;;18.30;88.60;;;;;;5032926;28;20222;-87
2022/05/20 04:37:04;;;;;;;3.53;2.00;;;18.30;88.50;;;;;;5032811;28;20214;-87
2022/05/20 04:39:33;;;;;;;5.13;2.80;;;18.40;88.40;;;;;;5033034;28;20206;-87
2022/05/20 04:47:38;;;;;;;2.03;1.92;;;18.50;87.40;;;;;;5032841;28;20237;-87
2022/05/20 04:50:11;;;;;;;3.25;1.95;;;18.60;87.80;;;;;;5032696;28;20202;-87
2022/05/20 04:52:42;;;;;;;1.88;1.77;;;18.70;87.20;;;;;;5032532;28;20234;-87
2022/05/20 04:55:10;;;;;;;3.00;2.05;;;18.70;87.10;;;;;;5032649;28;20214;-87
2022/05/20 04:57:44;;;;;;;1.90;1.80;;;18.80;86.80;;;;;;5032276;28;20217;-87
2022/05/20 05:00:17;;;;;;;2.78;1.90;;;18.80;87.30;;;;;;5032536;28;20206;-87
2022/05/20 05:02:46;;;;;;;2.25;1.90;;;18.80;86.60;;;;;;5032458;28;20280;-87
2022/05/20 05:05:18;;;;;;;5.75;1.98;;;18.90;86.10;;;;;;5032648;28;20309;-87
2022/05/20 05:07:50;;;;;;;3.80;2.58;;;18.90;86.30;;;;;;5032503;28;20311;-87
2022/05/20 05:10:21;;;;;;;2.85;2.17;;;18.90;86.10;;;;;;5032542;28;20210;-87
2022/05/20 05:12:50;;;;;;;3.20;2.90;;;18.90;85.60;;;;;;5032458;28;20234;-87
2022/05/20 05:15:19;;;;;;;4.10;2.53;;;19.00;85.50;;;;;;5032503;28;20207;-87
2022/05/20 05:30:33;;;;;;;2.85;2.10;;;19.00;85.20;;;;;;5009569;28;20214;-87
2022/05/20 05:33:01;;;;;;;2.67;2.33;;;19.00;85.10;;;;;;5013036;28;20281;-87
2022/05/20 05:39:31;;;;;;;2.85;2.28;;;19.00;85.40;;;;;;4947447;28;20211;-87
2022/05/20 05:42:49;;;;;;;3.75;2.47;;;19.10;84.40;;;;;;5012760;28;20203;-87
2022/05/20 05:45:38;;;;;;;4.63;3.25;;;19.10;83.50;;;;;;4991869;28;20215;-86
2022/05/20 05:49:06;;;;;;;2.90;1.67;;;19.20;83.10;;;;;;5012486;28;20222;-87
2022/05/20 05:52:15;;;;;;;2.47;2.15;;;19.30;84.00;;;;;;4932488;29;20322;-87
2022/05/20 05:54:43;;;;;;;15.27;2.20;;;19.40;83.20;;;;;;4919113;28;20323;-87
2022/05/20 05:57:16;;;;;;;11.23;2.40;;;19.50;82.40;;;;;;4974705;28;20204;-86
2022/05/20 05:59:45;;;;;;;3.10;2.45;;;19.60;81.90;;;;;;5002302;28;20215;-87
2022/05/20 06:02:21;;;;;;;3.88;2.33;;;19.70;81.10;;;;;;5015758;28;20199;-86
2022/05/20 06:05:03;;;;;;;3.70;2.38;;;19.80;80.40;;;;;;5013185;28;20211;-87
2022/05/20 06:07:52;;;;;;;4.50;2.60;;;19.90;80.10;;;;;;5015871;28;20207;-86
2022/05/20 06:10:33;;;;;;;4.40;2.92;;;20.00;80.80;;;;;;5015687;28;20211;-87
2022/05/20 06:28:25;;;;;;;2.38;2.17;;;20.60;81.70;;;;;;5034227;28;20202;-86
2022/05/20 06:31:36;;;;;;;4.43;2.88;;;20.90;82.80;;;;;;5035206;28;20270;-86
2022/05/20 06:34:05;;;;;;;4.03;2.58;;;21.10;81.70;;;;;;5034889;28;20285;-86
2022/05/20 06:39:50;;;;;;;3.40;2.20;;;21.50;79.40;;;;;;5032813;28;20198;-86
2022/05/20 06:42:23;;;;;;;5.25;2.53;;;21.60;80.10;;;;;;5034992;28;20250;-86
2022/05/20 06:48:42;;;;;;;4.45;3.03;;;21.90;80.00;;;;;;5024808;28;20288;-86
2022/05/20 06:54:59;;;;;;;3.28;2.90;;;22.30;80.40;;;;;;5292901;22;20253;-85
2022/05/20 06:57:27;;;;;;;4.72;3.47;;;22.60;78.90;;;;;;5034658;28;20202;-85
2022/05/20 06:59:56;;;;;;;3.42;2.95;;;22.80;80.30;;;;;;5034539;28;20202;-85
2022/05/20 07:02:25;;;;;;;3.72;3.25;;;22.90;80.20;;;;;;5034453;28;20264;-85
2022/05/20 07:05:03;;;;;;;5.32;3.00;;;23.00;80.50;;;;;;5034675;28;20207;-85
2022/05/20 07:07:43;;;;;;;2.80;2.38;;;23.20;80.70;;;;;;5033781;28;20206;-85
2022/05/20 07:10:52;;;;;;;3.95;2.75;;;23.30;79.00;;;;;;5033461;28;20202;-87
2022/05/20 07:13:39;;;;;;;3.85;2.67;;;23.30;79.20;;;;;;4982317;28;20261;-84
2022/05/20 07:16:07;;;;;;;4.38;3.63;;;23.40;79.50;;;;;;5014364;28;20203;-84
2022/05/20 07:18:45;;;;;;;5.18;2.95;;;23.60;78.40;;;;;;5034272;28;20202;-83
2022/05/20 07:22:08;;;;;;;2.70;2.50;;;23.80;77.90;;;;;;5034114;28;20249;-86
2022/05/20 07:25:07;;;;;;;2.90;2.67;;;24.80;76.90;;;;;;5039704;22;20234;-85
2022/05/20 07:27:42;;;;;;;3.63;2.90;;;26.10;73.10;;;;;;4996827;28;20214;-85
2022/05/20 07:30:11;;;;;;;5.13;2.80;;;27.00;72.60;;;;;;5014022;28;20207;-86
2022/05/20 07:35:47;;;;;;;3.53;3.20;;;28.90;67.00;;;;;;4953631;29;20292;-85
2022/05/20 07:53:19;;;;;;;3.13;2.83;;;34.00;63.70;;;;;;4877325;29;20342;-87
2022/05/20 07:55:19;;;;;;;4.03;3.03;;;34.90;61.70;;;;;;4883947;29;20203;-87
2022/05/20 07:58:18;;;;;;;3.72;2.67;;;35.70;58.70;;;;;;4895338;29;20203;-87
2022/05/20 08:04:57;;;;;;;2.55;2.35;;;38.50;56.50;;;;;;5101495;23;20233;-86
2022/05/20 08:11:22;;;;;;;3.85;3.17;;;37.50;55.60;;;;;;4960494;28;20200;-86
2022/05/20 08:27:07;;;;;;;4.00;2.85;;;42.90;46.60;;;;;;5010151;28;20210;-87
2022/05/20 08:29:36;;;;;;;4.45;2.88;;;42.90;45.30;;;;;;4993582;28;20210;-87
2022/05/20 08:32:05;;;;;;;7.40;3.00;;;41.80;44.30;;;;;;5011484;28;20243;-87
2022/05/20 08:34:36;;;;;;;5.60;3.22;;;40.40;46.40;;;;;;5012800;28;20234;-87
2022/05/20 08:37:07;;;;;;;5.25;3.30;;;39.70;47.80;;;;;;5012789;28;20206;-87
2022/05/20 08:39:36;;;;;;;3.78;3.08;;;40.10;47.40;;;;;;5013136;28;20214;-87
2022/05/20 08:42:06;;;;;;;3.00;2.78;;;39.90;46.30;;;;;;5012156;28;20211;-86
2022/05/20 08:59:34;;;;;;;3.00;2.70;;;42.50;45.80;;;;;;4764455;30;20213;-87
2022/05/20 09:02:03;;;;;;;2.42;2.15;;;43.10;42.70;;;;;;4813434;29;20220;-87
2022/05/20 09:20:24;;;;;;;5.20;2.42;;;43.20;42.00;;;;;;4949732;28;20221;-87
2022/05/20 09:22:59;;;;;;;2.40;2.20;;;43.40;42.90;;;;;;5058009;23;20307;-87
2022/05/20 09:25:29;;;;;;;2.38;2.17;;;43.60;41.00;;;;;;5051892;28;20197;-87
2022/05/20 09:28:18;;;;;;;2.20;2.00;;;43.70;41.50;;;;;;5051769;28;20201;-88
2022/05/20 09:33:36;;;;;;;3.33;2.53;;;42.70;42.30;;;;;;5054951;28;20305;-87
2022/05/20 09:36:33;;;;;;;2.28;2.10;;;42.50;42.60;;;;;;5056024;28;20300;-86
2022/05/20 09:39:11;;;;;;;2.20;2.10;;;42.40;43.00;;;;;;5055404;28;20204;-86
2022/05/20 09:41:51;;;;;;;4.18;1.70;;;42.40;41.10;;;;;;5055219;28;20201;-86
2022/05/20 09:44:28;;;;;;;2.88;2.53;;;41.20;39.90;;;;;;5052531;28;20221;-87
2022/05/20 09:47:00;;;;;;;2.33;2.00;;;41.50;43.40;;;;;;5055670;28;20224;-86
2022/05/20 09:49:42;;;;;;;3.47;2.25;;;41.80;42.20;;;;;;5055441;28;20201;-87
2022/05/20 09:52:28;;;;;;;2.92;1.80;;;41.90;42.20;;;;;;5055808;28;20209;-87
2022/05/20 09:55:02;;;;;;;17.63;2.58;;;42.10;42.50;;;;;;5055336;28;20201;-86
2022/05/20 09:57:39;;;;;;;2.97;2.15;;;42.10;41.20;;;;;;5055233;28;20205;-87
2022/05/20 10:03:34;;;;;;;2.22;2.03;;;42.20;41.50;;;;;;5151542;23;20221;-86
2022/05/20 10:17:03;;;;;;;7.70;2.25;;;40.70;42.30;;;;;;4967682;28;20183;-86
2022/05/20 10:19:43;;;;;;;3.28;2.70;;;40.80;42.30;;;;;;5019913;28;20249;-86
2022/05/20 10:22:47;;;;;;;3.05;2.05;;;41.00;43.10;;;;;;5015582;28;20241;-86
2022/05/20 10:35:36;;;;;;;2.72;2.17;;;41.10;42.80;;;;;;5015213;28;20210;-86
2022/05/20 10:38:51;;;;;;;2.20;2.10;;;41.30;42.20;;;;;;5015114;28;20208;-86
2022/05/20 10:41:38;;;;;;;2.30;2.10;;;41.20;41.90;;;;;;5033167;28;20213;-86
2022/05/20 10:59:14;;;;;;;5.45;2.65;;;40.20;41.40;;;;;;4986440;28;20209;-86
2022/05/20 11:16:07;;;;;;;2.58;2.38;;;39.80;45.60;;;;;;5324518;23;20227;-86
2022/05/20 11:22:55;;;;;;;3.38;3.08;;;39.90;44.10;;;;;;4858022;29;20204;-90
2022/05/20 11:25:46;;;;;;;3.40;3.10;;;39.80;45.00;;;;;;4828708;29;20246;-87
2022/05/20 11:28:46;;;;;;;2.72;2.53;;;39.90;43.50;;;;;;4889757;29;20230;-87
2022/05/20 11:31:53;;;;;;;2.75;2.55;;;39.90;44.40;;;;;;4895946;29;20206;-87
2022/05/20 11:34:56;;;;;;;2.20;2.10;;;39.50;45.00;;;;;;4874572;29;20298;-87
2022/05/20 11:37:50;;;;;;;5.30;2.50;;;39.60;44.70;;;;;;4895957;29;20262;-87
2022/05/20 11:40:44;;;;;;;2.38;2.10;;;40.00;45.20;;;;;;4895542;29;20199;-87
2022/05/20 11:43:48;;;;;;;2.63;2.42;;;40.10;44.70;;;;;;4890156;29;20225;-86
2022/05/20 11:46:32;;;;;;;2.30;2.10;;;40.30;44.00;;;;;;4895436;29;20320;-86
2022/05/20 11:49:29;;;;;;;2.40;2.20;;;40.30;43.20;;;;;;4896270;29;20217;-86
2022/05/20 11:52:18;;;;;;;6.10;2.70;;;40.50;43.90;;;;;;4879451;29;20210;-86
2022/05/20 11:55:03;;;;;;;2.50;2.30;;;40.60;43.90;;;;;;4895800;29;20207;-86
2022/05/20 12:02:19;;;;;;;5.28;3.70;;;40.30;43.20;;;;;;4873344;29;20306;-87
2022/05/20 12:04:50;;;;;;;5.88;2.30;;;40.10;44.70;;;;;;4944965;28;20224;-87
2022/05/20 12:07:23;;;;;;;4.13;2.40;;;40.10;44.20;;;;;;4965306;28;20224;-87
2022/05/20 12:09:53;;;;;;;2.28;2.08;;;40.40;44.20;;;;;;4963818;28;20204;-86
2022/05/20 12:12:25;;;;;;;2.60;2.40;;;40.40;44.10;;;;;;4972792;28;20263;-87
2022/05/20 12:15:02;;;;;;;2.47;2.20;;;40.50;42.00;;;;;;4973807;28;20214;-86
2022/05/20 12:17:32;;;;;;;3.95;2.58;;;40.50;43.50;;;;;;4973551;28;20215;-89
2022/05/20 12:26:40;;;;;;;2.97;2.28;;;37.00;42.90;;;;;;4973615;28;20208;-86
2022/05/20 12:29:43;;;;;;;2.85;1.98;;;36.70;44.00;;;;;;4954999;29;20213;-86
2022/05/20 12:35:05;;;;;;;2.13;2.03;;;37.10;44.00;;;;;;5225963;23;20306;-86
2022/05/20 12:53:15;;;;;;;3.28;2.97;;;38.00;45.10;;;;;;5732942;23;20226;-85
2022/05/20 12:55:46;;;;;;;2.70;2.50;;;37.90;45.10;;;;;;5032334;28;20207;-86
2022/05/20 13:01:16;;;;;;;2.72;2.53;;;36.70;45.70;;;;;;5025269;28;20202;-86
2022/05/20 13:03:59;;;;;;;4.63;2.63;;;36.60;46.10;;;;;;5029772;28;20321;-86
2022/05/20 13:06:31;;;;;;;2.75;2.55;;;36.20;46.40;;;;;;5032499;28;20198;-86
2022/05/20 13:09:09;;;;;;;2.78;2.35;;;36.00;47.00;;;;;;5032133;28;20205;-86
2022/05/20 13:23:11;;;;;;;2.83;2.63;;;35.20;48.70;;;;;;4962213;23;20253;-85
2022/05/20 13:44:50;;;;;;;3.05;2.70;;;33.40;51.30;;;;;;5058378;23;20257;-88
2022/05/20 13:50:40;;;;;;;10.40;2.95;;;32.80;52.50;;;;;;5031154;28;20202;-87
2022/05/20 13:53:20;;;;;;;3.42;2.85;;;32.80;52.90;;;;;;5031747;28;20244;-88
2022/05/20 13:55:49;;;;;;;3.00;2.63;;;33.00;52.70;;;;;;5031908;28;20206;-87
2022/05/20 13:58:24;;;;;;;3.00;2.80;;;33.00;52.50;;;;;;5032043;28;20245;-88
2022/05/20 14:00:54;;;;;;;3.28;2.97;;;32.90;52.20;;;;;;5031652;28;20206;-87
2022/05/20 14:03:25;;;;;;;3.03;2.72;;;32.80;52.30;;;;;;5031567;28;20219;-87
2022/05/20 14:05:59;;;;;;;2.50;2.30;;;32.90;53.00;;;;;;5031686;28;20222;-89
2022/05/20 14:27:32;;;;;;;3.00;2.72;;;33.10;52.00;;;;;;5103870;23;20311;-88
2022/05/20 14:48:59;;;;;;;3.03;2.75;;;32.50;53.10;;;;;;4860014;29;20260;-87
2022/05/20 14:51:35;;;;;;;3.55;2.50;;;32.30;53.70;;;;;;4907159;28;20272;-88
2022/05/20 14:54:05;;;;;;;3.72;2.90;;;32.20;53.80;;;;;;5034834;28;20284;-89
2022/05/20 14:56:39;;;;;;;3.30;2.40;;;32.20;54.10;;;;;;5034965;28;20197;-88
2022/05/20 14:59:09;;;;;;;3.00;2.80;;;32.10;54.30;;;;;;5034636;28;20272;-87
2022/05/20 15:01:40;;;;;;;2.47;2.28;;;32.00;54.30;;;;;;5034155;28;20206;-88
2022/05/20 15:04:08;;;;;;;2.67;2.47;;;32.00;54.50;;;;;;5034353;28;20253;-88
2022/05/20 15:06:43;;;;;;;4.72;2.13;;;31.90;54.90;;;;;;5034357;28;20238;-87
2022/05/20 15:09:21;;;;;;;2.80;2.50;;;31.70;54.70;;;;;;5034478;28;20206;-89
2022/05/20 15:11:50;;;;;;;2.47;2.28;;;31.60;55.00;;;;;;5034283;28;20202;-88
2022/05/20 15:14:19;;;;;;;2.63;2.42;;;31.50;55.10;;;;;;5034411;28;20262;-88
2022/05/20 15:16:47;;;;;;;3.67;2.90;;;31.30;55.00;;;;;;5034201;28;20206;-88
2022/05/20 15:19:15;;;;;;;5.28;3.30;;;31.20;55.70;;;;;;5034168;28;20222;-88
2022/05/20 15:21:46;;;;;;;3.20;2.83;;;31.00;56.00;;;;;;5033715;28;20207;-88
2022/05/20 15:24:20;;;;;;;2.67;2.47;;;30.90;56.80;;;;;;5034163;28;20249;-88
2022/05/20 15:26:48;;;;;;;3.67;2.97;;;31.00;56.50;;;;;;5034049;28;20237;-88
2022/05/20 15:29:17;;;;;;;3.35;2.60;;;30.90;56.20;;;;;;5033486;28;20203;-88
2022/05/20 15:37:22;;;;;;;2.55;2.28;;;30.70;56.80;;;;;;5033771;28;20218;-88
2022/05/20 15:39:53;;;;;;;3.53;2.83;;;30.70;56.60;;;;;;5033775;28;20202;-88
2022/05/20 15:42:24;;;;;;;2.90;2.35;;;30.60;56.70;;;;;;5033841;28;20209;-88
2022/05/20 15:44:53;;;;;;;3.03;2.38;;;30.60;56.80;;;;;;5033422;28;20218;-87
2022/05/20 15:47:23;;;;;;;2.63;2.15;;;30.60;56.50;;;;;;5033808;28;20260;-88
2022/05/20 15:49:53;;;;;;;3.67;2.13;;;30.60;56.70;;;;;;5033909;28;20202;-88
2022/05/20 15:52:27;;;;;;;2.65;2.45;;;30.60;57.00;;;;;;5033382;28;20214;-88
2022/05/20 15:55:08;;;;;;;3.45;2.42;;;30.60;57.10;;;;;;5033554;28;20198;-87
2022/05/20 15:57:40;;;;;;;3.38;2.55;;;30.40;57.20;;;;;;5033123;28;20206;-87
2022/05/20 16:00:11;;;;;;;3.80;2.33;;;30.30;57.20;;;;;;5033273;28;20207;-89
2022/05/20 16:02:40;;;;;;;2.70;2.50;;;30.30;57.40;;;;;;5033140;28;20211;-88
2022/05/20 16:05:20;;;;;;;2.55;2.40;;;30.30;57.80;;;;;;5033045;28;20252;-88
2022/05/20 16:07:51;;;;;;;2.60;2.40;;;30.30;57.90;;;;;;5033419;28;20198;-87
2022/05/20 16:10:24;;;;;;;2.63;2.42;;;30.30;58.10;;;;;;5033148;28;20210;-88
2022/05/20 16:12:53;;;;;;;2.42;2.22;;;30.30;58.80;;;;;;5033401;28;20231;-88
2022/05/20 16:15:23;;;;;;;3.30;2.83;;;30.20;58.70;;;;;;5033202;28;20237;-88
2022/05/20 16:17:51;;;;;;;2.55;2.35;;;30.10;59.30;;;;;;5033151;28;20206;-88
2022/05/20 16:20:19;;;;;;;4.40;2.75;;;30.10;59.10;;;;;;5032800;28;20225;-87
2022/05/20 16:22:50;;;;;;;3.20;2.50;;;30.00;59.40;;;;;;5033416;28;20222;-88
2022/05/20 16:25:18;;;;;;;2.60;2.40;;;29.80;60.10;;;;;;5032693;28;20219;-87
2022/05/20 16:27:50;;;;;;;4.00;3.13;;;29.80;60.20;;;;;;5033018;28;20256;-88
2022/05/20 16:30:20;;;;;;;3.13;2.92;;;29.80;60.70;;;;;;5032592;28;20202;-88
2022/05/20 16:32:50;;;;;;;3.47;2.97;;;29.80;60.30;;;;;;5032476;28;20249;-88
2022/05/20 16:35:19;;;;;;;3.03;2.83;;;29.70;60.40;;;;;;5032823;28;20206;-88
2022/05/20 16:37:51;;;;;;;5.00;3.08;;;29.80;60.80;;;;;;5032874;28;20210;-88
2022/05/20 16:40:22;;;;;;;5.15;3.22;;;29.80;60.80;;;;;;5032457;28;20214;-88
2022/05/20 16:42:51;;;;;;;2.80;2.60;;;29.80;60.60;;;;;;5032411;28;20238;-88
2022/05/20 16:45:22;;;;;;;3.25;2.97;;;29.70;60.70;;;;;;5032845;28;20237;-88
2022/05/20 16:47:54;;;;;;;2.72;2.55;;;29.70;61.00;;;;;;5032788;28;20230;-88
2022/05/20 16:50:23;;;;;;;2.85;2.65;;;29.70;60.90;;;;;;5032540;28;20256;-87
2022/05/20 16:52:53;;;;;;;7.65;3.50;;;29.60;61.00;;;;;;5032555;28;20230;-88
2022/05/20 16:55:21;;;;;;;2.60;2.40;;;29.50;61.10;;;;;;5032456;28;20206;-87
2022/05/20 17:03:21;;;;;;;2.92;2.63;;;29.40;61.90;;;;;;5032516;28;20227;-88
2022/05/20 17:05:50;;;;;;;3.08;2.78;;;29.30;62.00;;;;;;5032212;28;20225;-88
2022/05/20 17:08:20;;;;;;;3.95;3.05;;;29.20;62.30;;;;;;5032471;28;20206;-88
2022/05/20 17:10:48;;;;;;;2.53;2.33;;;29.10;62.30;;;;;;5032034;28;20233;-88
2022/05/20 17:13:19;;;;;;;3.92;2.90;;;29.00;62.30;;;;;;5032336;28;20246;-88
2022/05/20 17:15:47;;;;;;;7.95;3.25;;;29.00;62.60;;;;;;5032467;28;20210;-87
2022/05/20 17:18:16;;;;;;;3.70;3.40;;;29.00;62.70;;;;;;5032176;28;20214;-88
2022/05/20 17:20:45;;;;;;;5.03;3.10;;;28.90;62.70;;;;;;5032226;28;20222;-88
2022/05/20 17:26:05;;;;;;;7.22;3.20;;;28.70;63.00;;;;;;5032150;28;20218;-88
2022/05/20 17:28:35;;;;;;;4.18;2.90;;;28.60;63.50;;;;;;5032140;28;20210;-88
2022/05/20 17:31:03;;;;;;;3.67;3.38;;;28.60;63.80;;;;;;5031952;28;20276;-87
2022/05/20 17:33:31;;;;;;;3.80;3.13;;;28.60;63.80;;;;;;5032088;28;20236;-88
2022/05/20 17:36:00;;;;;;;2.92;2.72;;;28.60;64.00;;;;;;5031676;28;20198;-88
2022/05/20 17:38:29;;;;;;;3.25;2.90;;;28.40;64.10;;;;;;5032138;28;20230;-88
2022/05/20 17:40:57;;;;;;;3.85;2.55;;;28.40;64.40;;;;;;5031833;28;20211;-88
2022/05/20 17:43:28;;;;;;;4.80;2.78;;;28.40;64.60;;;;;;5031975;28;20218;-88
2022/05/20 17:45:57;;;;;;;2.63;2.47;;;28.40;64.80;;;;;;5032139;28;20219;-88
2022/05/20 17:48:25;;;;;;;4.28;2.83;;;28.30;64.90;;;;;;5032281;28;20213;-88
2022/05/20 17:50:53;;;;;;;3.95;3.08;;;28.20;65.00;;;;;;5032535;28;20275;-87
2022/05/20 17:53:22;;;;;;;3.35;2.72;;;28.20;65.30;;;;;;5035546;28;20230;-87
2022/05/20 17:55:50;;;;;;;2.53;2.38;;;28.20;65.50;;;;;;5035792;28;20288;-88
2022/05/20 17:58:19;;;;;;;4.30;3.40;;;28.10;65.80;;;;;;5035777;28;20206;-88
2022/05/20 18:00:48;;;;;;;2.92;2.67;;;28.10;66.10;;;;;;5035899;28;20210;-88
2022/05/20 18:03:17;;;;;;;7.30;3.40;;;28.00;66.00;;;;;;5035092;28;20253;-88
2022/05/20 18:05:45;;;;;;;3.65;3.35;;;28.00;66.40;;;;;;5035359;28;20206;-87
2022/05/20 18:08:13;;;;;;;2.90;2.70;;;27.90;66.60;;;;;;5035677;28;20260;-88
2022/05/20 18:10:42;;;;;;;3.15;2.83;;;27.90;66.60;;;;;;5035199;28;20214;-88
2022/05/20 18:13:10;;;;;;;2.67;2.47;;;27.80;66.90;;;;;;5035510;28;20234;-88
2022/05/20 18:15:39;;;;;;;3.13;2.83;;;27.70;66.70;;;;;;5035468;28;20215;-87
2022/05/20 18:18:09;;;;;;;3.20;2.92;;;27.60;66.80;;;;;;5035125;28;20209;-88
2022/05/20 18:20:39;;;;;;;3.15;2.85;;;27.60;66.80;;;;;;5035159;28;20202;-87
2022/05/20 18:23:08;;;;;;;3.47;3.17;;;27.50;66.90;;;;;;5035321;28;20299;-88
2022/05/20 18:25:37;;;;;;;4.40;2.63;;;27.50;67.30;;;;;;5035448;28;20214;-87